03OK weather

Sahoma Lake Airport
Sapulpa, Oklahoma, United States

Public forecast

Using degrees Fahrenheit for public forecast. Weather courtesy of forecast.io.

METAR (pilot weather report)

Closest report is William R. Pogue Municipal Airport, 8.1 nm (14.9 km) N. Retrieved 2019/04/24 05:35 UTC (2 minutes ago):

KOWP 240535Z AUTO 03005KT 10SM OVC007 14/13 A2997 RMK AO2 LTG DSNT S T01420127 PWINO

TAF (pilot weather forecast)

Forecast is more than 12 hours old.

Closest forecast is Richard Lloyd Jones Jr Airport, 8.6 nm (15.9 km) E. Retrieved 2019/04/23 00:22 UTC (1 day ago):

TAF KRVS 232320Z 2400/2424 34009KT P6SM VCSH FEW014 OVC100 FM240200 32007KT P6SM OVC015 FM240900 34004KT 5SM BR OVC004 TEMPO 2409/2413 2SM BR OVC001 FM241500 33005KT P6SM OVC015 FM241800 33003KT P6SM OVC025 FM242100 32004KT P6SM BKN050